Time;durP1;ratioP1;P1;durP2;ratioP2;P2;SDS_P1;SDS_P2;PMS_P1;PMS_P2;Temp;Humidity;BMP_temperature;BMP_pressure;BME280_temperature;BME280_humidity;BME280_pressure;Samples;Min_cycle;Max_cycle;Signal;HPM_P1;HPM_P2
2022/05/11 00:01:18;;;;;;;7.50;6.80;;;;;;;;;;4950385;28;20050;-78
2022/05/11 00:03:46;;;;;;;6.50;6.00;;;;;;;;;;4930150;28;20039;-77
2022/05/11 00:06:13;;;;;;;7.22;6.63;;;;;;;;;;4928459;28;20134;-78
2022/05/11 00:08:41;;;;;;;6.50;6.00;;;;;;;;;;4947297;28;20047;-78
2022/05/11 00:11:08;;;;;;;7.00;6.30;;;;;;;;;;4933823;28;20039;-77
2022/05/11 00:13:35;;;;;;;7.25;6.65;;;;;;;;;;4948059;29;20054;-78
2022/05/11 00:16:03;;;;;;;6.47;5.93;;;;;;;;;;4932515;28;20042;-77
2022/05/11 00:18:30;;;;;;;6.50;5.90;;;;;;;;;;4947417;28;20562;-77
2022/05/11 00:20:58;;;;;;;7.60;6.10;;;;;;;;;;4948974;28;20050;-78
2022/05/11 00:23:25;;;;;;;6.45;5.90;;;;;;;;;;4905763;29;20420;-78
2022/05/11 00:25:53;;;;;;;6.13;5.68;;;;;;;;;;4950389;28;20090;-78
2022/05/11 00:28:20;;;;;;;8.93;6.10;;;;;;;;;;4955162;28;20135;-77
2022/05/11 00:30:48;;;;;;;6.25;5.72;;;;;;;;;;4934594;29;20051;-78
2022/05/11 00:33:16;;;;;;;7.78;5.65;;;;;;;;;;4952756;28;20046;-78
2022/05/11 00:35:45;;;;;;;6.18;5.55;;;;;;;;;;4934900;28;20411;-77
2022/05/11 00:38:12;;;;;;;6.43;5.72;;;;;;;;;;4933812;29;20043;-78
2022/05/11 00:40:44;;;;;;;7.45;6.20;;;;;;;;;;4950691;28;20105;-78
2022/05/11 00:43:12;;;;;;;6.40;5.90;;;;;;;;;;4931785;29;20039;-78
2022/05/11 00:45:42;;;;;;;6.10;5.65;;;;;;;;;;4951445;28;20047;-78
2022/05/11 00:50:58;;;;;;;6.53;5.93;;;;;;;;;;4949998;28;20429;-77
2022/05/11 00:53:26;;;;;;;5.60;5.10;;;;;;;;;;4955881;28;20053;-78
2022/05/11 00:55:55;;;;;;;9.65;5.20;;;;;;;;;;4934125;28;20117;-78
2022/05/11 00:58:25;;;;;;;6.18;5.65;;;;;;;;;;4936132;28;20129;-78
2022/05/11 01:00:53;;;;;;;6.30;5.80;;;;;;;;;;4933535;29;20063;-78
2022/05/11 01:03:26;;;;;;;5.93;5.53;;;;;;;;;;4952444;28;20043;-78
2022/05/11 01:05:53;;;;;;;5.97;5.57;;;;;;;;;;4946264;28;20066;-78
2022/05/11 01:08:22;;;;;;;6.00;5.60;;;;;;;;;;4931754;28;20058;-77
2022/05/11 01:10:49;;;;;;;6.10;5.65;;;;;;;;;;4945761;28;20046;-77
2022/05/11 01:13:17;;;;;;;8.23;6.50;;;;;;;;;;4951367;28;20129;-78
2022/05/11 01:15:47;;;;;;;6.72;6.10;;;;;;;;;;4950410;28;20452;-78
2022/05/11 01:18:15;;;;;;;5.93;5.43;;;;;;;;;;4954949;23;20056;-82
2022/05/11 01:20:44;;;;;;;5.25;4.95;;;;;;;;;;4889241;29;20048;-82
2022/05/11 01:23:18;;;;;;;5.60;5.00;;;;;;;;;;4903157;29;20499;-83
2022/05/11 01:25:45;;;;;;;5.93;5.30;;;;;;;;;;4911953;29;20053;-83
2022/05/11 01:28:14;;;;;;;5.85;5.35;;;;;;;;;;4901954;29;20040;-84
2022/05/11 01:30:43;;;;;;;5.97;5.43;;;;;;;;;;4892187;29;20414;-82
2022/05/11 01:33:15;;;;;;;6.50;6.03;;;;;;;;;;4906214;29;20139;-83
2022/05/11 01:35:55;;;;;;;5.75;5.38;;;;;;;;;;4886288;29;20057;-81
2022/05/11 01:38:32;;;;;;;8.40;5.68;;;;;;;;;;4903539;29;20055;-82
2022/05/11 01:41:00;;;;;;;5.80;5.40;;;;;;;;;;4911239;29;20355;-83
2022/05/11 01:43:28;;;;;;;5.63;5.22;;;;;;;;;;4903482;29;20045;-82
2022/05/11 01:45:56;;;;;;;5.53;5.05;;;;;;;;;;4889049;29;20139;-82
2022/05/11 01:48:24;;;;;;;6.72;5.68;;;;;;;;;;4888579;29;20059;-83
2022/05/11 01:50:52;;;;;;;6.22;5.72;;;;;;;;;;4909495;29;20068;-83
2022/05/11 01:53:19;;;;;;;7.97;5.82;;;;;;;;;;4911911;29;20139;-83
2022/05/11 01:55:47;;;;;;;6.55;5.93;;;;;;;;;;4917559;29;20053;-85
2022/05/11 01:58:14;;;;;;;5.50;5.10;;;;;;;;;;4915491;29;20040;-84
2022/05/11 02:00:44;;;;;;;5.90;5.50;;;;;;;;;;4916183;29;20069;-82
2022/05/11 02:03:11;;;;;;;5.55;5.15;;;;;;;;;;4910123;29;20067;-82
2022/05/11 02:08:26;;;;;;;6.15;5.55;;;;;;;;;;4900257;29;20700;-82
2022/05/11 02:10:59;;;;;;;5.47;5.07;;;;;;;;;;4907589;29;20108;-83
2022/05/11 02:13:28;;;;;;;5.32;4.82;;;;;;;;;;4903261;29;20490;-85
2022/05/11 02:15:56;;;;;;;5.95;5.53;;;;;;;;;;4904095;29;20050;-83
2022/05/11 02:18:24;;;;;;;6.00;5.03;;;;;;;;;;4900988;29;20092;-83
2022/05/11 02:20:51;;;;;;;6.65;5.97;;;;;;;;;;4901318;29;20145;-82
2022/05/11 02:23:19;;;;;;;6.15;5.60;;;;;;;;;;4901128;29;20044;-83
2022/05/11 02:25:47;;;;;;;6.13;5.70;;;;;;;;;;4895800;29;20049;-82
2022/05/11 02:28:16;;;;;;;6.07;5.43;;;;;;;;;;4900067;29;20139;-83
2022/05/11 02:30:44;;;;;;;5.60;5.10;;;;;;;;;;4889204;29;20053;-83
2022/05/11 02:33:12;;;;;;;6.93;6.28;;;;;;;;;;4900835;29;20044;-83
2022/05/11 02:35:40;;;;;;;6.28;5.57;;;;;;;;;;4880385;29;20590;-82
2022/05/11 02:38:11;;;;;;;6.28;5.78;;;;;;;;;;4889006;29;20490;-83
2022/05/11 02:40:39;;;;;;;6.13;5.73;;;;;;;;;;4898558;29;20100;-83
2022/05/11 02:43:09;;;;;;;7.00;6.30;;;;;;;;;;4896329;29;20470;-82
2022/05/11 02:45:37;;;;;;;5.90;5.40;;;;;;;;;;4901107;29;20060;-82
2022/05/11 02:48:06;;;;;;;6.00;5.60;;;;;;;;;;4898597;29;20493;-83
2022/05/11 02:50:35;;;;;;;6.43;5.38;;;;;;;;;;4903329;29;20380;-83
2022/05/11 02:53:07;;;;;;;6.30;5.80;;;;;;;;;;4899691;29;20052;-82
2022/05/11 02:55:35;;;;;;;;;;;;;;;;;;4883286;29;20056;-83
2022/05/11 02:58:03;;;;;;;5.68;5.28;;;;;;;;;;4897794;29;19934;-83
2022/05/11 03:00:31;;;;;;;6.70;6.15;;;;;;;;;;4893140;29;20045;-83
2022/05/11 03:02:59;;;;;;;6.32;5.72;;;;;;;;;;4902212;29;20319;-82
2022/05/11 03:05:26;;;;;;;6.13;5.65;;;;;;;;;;4897335;29;20115;-82
2022/05/11 03:07:54;;;;;;;6.47;5.88;;;;;;;;;;4897124;29;20570;-82
2022/05/11 03:10:22;;;;;;;6.65;6.00;;;;;;;;;;4900182;29;20060;-83
2022/05/11 03:12:49;;;;;;;5.75;5.35;;;;;;;;;;4881110;29;20048;-83
2022/05/11 03:15:17;;;;;;;6.55;5.95;;;;;;;;;;4897256;29;20048;-84
2022/05/11 03:17:44;;;;;;;6.80;5.82;;;;;;;;;;4899769;29;20132;-83
2022/05/11 03:20:12;;;;;;;6.80;6.20;;;;;;;;;;4896624;29;20045;-83
2022/05/11 03:22:39;;;;;;;6.07;5.68;;;;;;;;;;4917220;29;20044;-84
2022/05/11 03:25:08;;;;;;;5.60;5.20;;;;;;;;;;4900758;29;20037;-83
2022/05/11 03:27:36;;;;;;;6.35;5.75;;;;;;;;;;4884766;29;20071;-83
2022/05/11 03:30:04;;;;;;;7.03;6.25;;;;;;;;;;4896589;29;20057;-83
2022/05/11 03:35:17;;;;;;;7.18;6.50;;;;;;;;;;4899156;29;20048;-83
2022/05/11 03:37:45;;;;;;;7.57;6.50;;;;;;;;;;4893702;29;20040;-83
2022/05/11 03:40:12;;;;;;;7.43;6.82;;;;;;;;;;4895191;29;20101;-83
2022/05/11 03:42:40;;;;;;;7.25;6.65;;;;;;;;;;4893186;29;20045;-82
2022/05/11 03:45:08;;;;;;;7.25;6.65;;;;;;;;;;4894158;29;20044;-82
2022/05/11 03:47:36;;;;;;;7.22;6.53;;;;;;;;;;4893800;29;20059;-82
2022/05/11 03:50:03;;;;;;;8.57;7.78;;;;;;;;;;4896326;29;20044;-83
2022/05/11 03:52:31;;;;;;;8.05;6.70;;;;;;;;;;4902867;29;20067;-84
2022/05/11 03:54:58;;;;;;;6.00;5.50;;;;;;;;;;4901081;29;20058;-83
2022/05/11 03:57:26;;;;;;;6.75;6.05;;;;;;;;;;4890481;29;20048;-82
2022/05/11 03:59:53;;;;;;;7.75;6.88;;;;;;;;;;4898782;29;20450;-82
2022/05/11 04:02:20;;;;;;;6.70;6.20;;;;;;;;;;4901540;29;20523;-82
2022/05/11 04:04:48;;;;;;;6.95;6.32;;;;;;;;;;4898472;29;20539;-83
2022/05/11 04:07:16;;;;;;;6.18;5.50;;;;;;;;;;4906815;29;20645;-83
2022/05/11 04:09:44;;;;;;;5.78;5.38;;;;;;;;;;4899676;29;20392;-84
2022/05/11 04:12:11;;;;;;;6.50;5.80;;;;;;;;;;4900001;29;20048;-82
2022/05/11 04:14:39;;;;;;;7.82;7.15;;;;;;;;;;4898879;29;20048;-82
2022/05/11 04:17:06;;;;;;;7.15;6.60;;;;;;;;;;4906265;29;20049;-82
2022/05/11 04:19:33;;;;;;;6.80;6.30;;;;;;;;;;4893457;29;20040;-83
2022/05/11 04:22:00;;;;;;;6.88;6.28;;;;;;;;;;4886134;29;20056;-83
2022/05/11 04:24:28;;;;;;;6.90;6.35;;;;;;;;;;4847684;29;20484;-83
2022/05/11 04:26:55;;;;;;;6.80;6.10;;;;;;;;;;4867580;29;20476;-82
2022/05/11 04:29:23;;;;;;;9.23;6.63;;;;;;;;;;4892400;29;20052;-82
2022/05/11 04:31:55;;;;;;;6.68;6.15;;;;;;;;;;4887393;29;20105;-84
2022/05/11 04:34:23;;;;;;;6.93;6.32;;;;;;;;;;4892777;29;20061;-82
2022/05/11 04:36:50;;;;;;;6.35;5.82;;;;;;;;;;4895303;29;20057;-83
2022/05/11 04:39:17;;;;;;;7.28;6.78;;;;;;;;;;4898021;29;20041;-83
2022/05/11 04:41:45;;;;;;;6.90;6.30;;;;;;;;;;4891150;29;20045;-79
2022/05/11 04:44:12;;;;;;;7.75;7.05;;;;;;;;;;4891396;29;20816;-82
2022/05/11 04:46:40;;;;;;;8.45;6.35;;;;;;;;;;4880847;29;20656;-82
2022/05/11 04:49:16;;;;;;;7.47;6.60;;;;;;;;;;4884811;29;20127;-80
2022/05/11 04:51:44;;;;;;;7.15;6.40;;;;;;;;;;4887792;29;20063;-81
2022/05/11 04:54:12;;;;;;;11.13;6.65;;;;;;;;;;4892695;29;20049;-82
2022/05/11 04:56:40;;;;;;;12.80;6.57;;;;;;;;;;4879353;29;20671;-82
2022/05/11 04:59:08;;;;;;;7.10;6.50;;;;;;;;;;4884147;29;20041;-82
2022/05/11 05:01:36;;;;;;;6.90;6.28;;;;;;;;;;4874842;29;20064;-80
2022/05/11 05:04:04;;;;;;;7.43;6.57;;;;;;;;;;4877222;29;20045;-82
2022/05/11 05:06:34;;;;;;;6.63;6.13;;;;;;;;;;4868623;29;20045;-81
2022/05/11 05:09:03;;;;;;;7.43;6.72;;;;;;;;;;4877068;29;20542;-82
2022/05/11 05:11:31;;;;;;;7.15;6.47;;;;;;;;;;4857379;29;20056;-82
2022/05/11 05:13:58;;;;;;;7.45;6.75;;;;;;;;;;4877691;29;20068;-82
2022/05/11 05:16:26;;;;;;;7.68;7.05;;;;;;;;;;4881970;29;20056;-82
2022/05/11 05:18:56;;;;;;;7.10;6.50;;;;;;;;;;4888611;29;20051;-82
2022/05/11 05:21:23;;;;;;;7.05;6.55;;;;;;;;;;4898954;29;20050;-82
2022/05/11 05:23:53;;;;;;;7.05;6.50;;;;;;;;;;4900834;29;20092;-82
2022/05/11 05:26:20;;;;;;;7.00;6.40;;;;;;;;;;4898570;29;20041;-83
2022/05/11 05:31:53;;;;;;;7.93;6.72;;;;;;;;;;4892246;29;20135;-82
2022/05/11 05:34:21;;;;;;;6.85;6.25;;;;;;;;;;4893852;29;20081;-83
2022/05/11 05:36:48;;;;;;;6.75;6.25;;;;;;;;;;4885986;29;20048;-81
2022/05/11 05:39:15;;;;;;;7.65;6.18;;;;;;;;;;4900322;29;20047;-83
2022/05/11 05:41:43;;;;;;;6.60;6.20;;;;;;;;;;4905736;29;20045;-82
2022/05/11 05:44:10;;;;;;;6.40;5.80;;;;;;;;;;4901937;29;20044;-81
2022/05/11 05:46:37;;;;;;;7.28;6.57;;;;;;;;;;4897590;29;20131;-82
2022/05/11 05:49:05;;;;;;;7.82;5.40;;;;;;;;;;4903988;29;20057;-81
2022/05/11 05:51:32;;;;;;;5.15;4.65;;;;;;;;;;4884178;29;20048;-83
2022/05/11 05:54:02;;;;;;;8.38;5.97;;;;;;;;;;4901043;29;20048;-83
2022/05/11 05:56:29;;;;;;;6.28;5.80;;;;;;;;;;4898138;29;20052;-83
2022/05/11 05:58:59;;;;;;;6.22;5.72;;;;;;;;;;4896459;29;20124;-83
2022/05/11 06:01:27;;;;;;;6.78;6.07;;;;;;;;;;4894766;29;20045;-82
2022/05/11 06:03:54;;;;;;;7.68;6.65;;;;;;;;;;4887659;29;20040;-83
2022/05/11 06:06:22;;;;;;;7.07;6.47;;;;;;;;;;4901238;29;20783;-80
2022/05/11 06:08:50;;;;;;;7.70;7.10;;;;;;;;;;4902436;29;20582;-83
2022/05/11 06:11:17;;;;;;;6.78;6.18;;;;;;;;;;4898319;29;20060;-81
2022/05/11 06:13:47;;;;;;;6.95;6.45;;;;;;;;;;4894022;29;20522;-83
2022/05/11 06:16:16;;;;;;;7.63;6.55;;;;;;;;;;4907893;29;20049;-82
2022/05/11 06:18:45;;;;;;;6.35;5.82;;;;;;;;;;4874921;29;20135;-82
2022/05/11 06:21:16;;;;;;;8.35;6.50;;;;;;;;;;4900032;29;20048;-83
2022/05/11 06:23:44;;;;;;;6.97;6.20;;;;;;;;;;4899355;29;20044;-81
2022/05/11 06:26:13;;;;;;;6.72;6.00;;;;;;;;;;4881380;29;20053;-81
2022/05/11 06:28:41;;;;;;;6.68;6.15;;;;;;;;;;4897067;29;20116;-83
2022/05/11 06:31:17;;;;;;;11.68;6.18;;;;;;;;;;4904334;29;20074;-83
2022/05/11 06:33:46;;;;;;;7.20;6.50;;;;;;;;;;4896288;29;20059;-83
2022/05/11 06:36:14;;;;;;;6.25;5.75;;;;;;;;;;4896487;29;20051;-83
2022/05/11 06:38:42;;;;;;;6.50;5.90;;;;;;;;;;4878621;29;20654;-81
2022/05/11 06:41:12;;;;;;;6.38;5.88;;;;;;;;;;4878456;29;20052;-83
2022/05/11 06:43:39;;;;;;;6.93;6.30;;;;;;;;;;4867558;29;20495;-82
2022/05/11 06:46:07;;;;;;;7.30;6.60;;;;;;;;;;4899285;29;20036;-84
2022/05/11 06:48:39;;;;;;;8.98;6.72;;;;;;;;;;4895976;29;20056;-84
2022/05/11 06:51:06;;;;;;;8.18;6.65;;;;;;;;;;4898285;29;20218;-84
2022/05/11 06:59:22;;;;;;;8.60;6.57;;;;;;;;;;4883087;29;20048;-84
2022/05/11 07:01:53;;;;;;;7.28;6.68;;;;;;;;;;4904039;29;20049;-85
2022/05/11 07:04:22;;;;;;;7.32;6.65;;;;;;;;;;4895978;29;20075;-84
2022/05/11 07:06:52;;;;;;;7.70;7.00;;;;;;;;;;4905568;29;20037;-84
2022/05/11 07:09:24;;;;;;;7.40;6.80;;;;;;;;;;4900606;29;20048;-86
2022/05/11 07:14:38;;;;;;;7.30;6.47;;;;;;;;;;4889208;29;20048;-84
2022/05/11 07:17:11;;;;;;;6.75;6.05;;;;;;;;;;4889358;29;20072;-85
2022/05/11 07:19:42;;;;;;;6.13;5.60;;;;;;;;;;4930771;23;20043;-79
2022/05/11 07:22:10;;;;;;;5.53;5.13;;;;;;;;;;4945255;29;20435;-79
2022/05/11 07:24:38;;;;;;;5.75;5.10;;;;;;;;;;4949397;28;20041;-79
2022/05/11 07:27:06;;;;;;;5.30;4.80;;;;;;;;;;4938742;29;20528;-79
2022/05/11 07:29:33;;;;;;;5.47;5.07;;;;;;;;;;4941410;28;20569;-79
2022/05/11 07:32:00;;;;;;;5.82;5.32;;;;;;;;;;4939971;29;20044;-78
2022/05/11 07:34:28;;;;;;;5.82;5.38;;;;;;;;;;4938356;29;20126;-79
2022/05/11 07:36:56;;;;;;;5.30;4.95;;;;;;;;;;4946169;29;20038;-78
2022/05/11 07:39:23;;;;;;;4.93;4.63;;;;;;;;;;4920707;29;20501;-79
2022/05/11 07:41:51;;;;;;;5.82;5.10;;;;;;;;;;4941557;28;20055;-79
2022/05/11 07:44:18;;;;;;;5.47;5.07;;;;;;;;;;4944357;29;20035;-79
2022/05/11 07:46:46;;;;;;;5.90;5.40;;;;;;;;;;4931610;29;20458;-79
2022/05/11 07:49:14;;;;;;;5.65;4.70;;;;;;;;;;4939161;29;20054;-79
2022/05/11 07:51:43;;;;;;;7.55;5.35;;;;;;;;;;4945425;28;20053;-78
2022/05/11 07:54:10;;;;;;;5.93;5.05;;;;;;;;;;4948947;28;20066;-79
2022/05/11 08:02:10;;;;;;;5.45;4.95;;;;;;;;;;4937631;29;20442;-79
2022/05/11 08:04:39;;;;;;;5.93;5.32;;;;;;;;;;4941366;29;20035;-79
2022/05/11 08:07:07;;;;;;;5.35;4.80;;;;;;;;;;4942587;29;20184;-79
2022/05/11 08:09:34;;;;;;;6.90;4.70;;;;;;;;;;4933070;29;21066;-79
2022/05/11 08:12:02;;;;;;;5.63;5.03;;;;;;;;;;4938411;29;20050;-78
2022/05/11 08:14:29;;;;;;;4.80;4.50;;;;;;;;;;4930604;29;20074;-79
2022/05/11 08:16:57;;;;;;;4.78;4.38;;;;;;;;;;4924916;29;20119;-78
2022/05/11 08:19:26;;;;;;;4.95;4.40;;;;;;;;;;4927412;29;20044;-79
2022/05/11 08:21:57;;;;;;;5.57;4.10;;;;;;;;;;4939282;29;20143;-79
2022/05/11 08:24:26;;;;;;;4.53;4.22;;;;;;;;;;4921700;29;20055;-79
2022/05/11 08:26:53;;;;;;;4.60;4.30;;;;;;;;;;4911036;29;20995;-79
2022/05/11 08:34:53;;;;;;;4.43;3.60;;;;;;;;;;4937504;29;20107;-79
2022/05/11 08:37:20;;;;;;;4.15;3.75;;;;;;;;;;4946319;28;20047;-80
2022/05/11 08:39:49;;;;;;;4.45;4.05;;;;;;;;;;4946565;28;20045;-81
2022/05/11 08:42:16;;;;;;;4.00;3.70;;;;;;;;;;4924708;29;21302;-81
2022/05/11 08:44:46;;;;;;;4.25;3.92;;;;;;;;;;4934728;29;20039;-84
2022/05/11 08:47:16;;;;;;;3.40;3.10;;;;;;;;;;4944917;29;20126;-81
2022/05/11 08:49:43;;;;;;;4.38;3.60;;;;;;;;;;4918099;29;20299;-81
2022/05/11 08:52:37;;;;;;;3.50;3.20;;;;;;;;;;4938281;29;20055;-80
2022/05/11 08:55:04;;;;;;;6.88;3.80;;;;;;;;;;4912531;29;20461;-80
2022/05/11 08:57:33;;;;;;;3.63;3.42;;;;;;;;;;4924940;29;20261;-81
2022/05/11 09:00:06;;;;;;;3.40;3.20;;;;;;;;;;4949151;29;20071;-80
2022/05/11 09:02:47;;;;;;;4.15;3.38;;;;;;;;;;4936823;29;20078;-81
2022/05/11 09:05:19;;;;;;;3.97;3.38;;;;;;;;;;4919757;28;20139;-81
2022/05/11 09:07:49;;;;;;;3.40;3.10;;;;;;;;;;4948044;29;20055;-81
2022/05/11 09:10:29;;;;;;;2.95;2.70;;;;;;;;;;4920617;29;20052;-81
2022/05/11 09:12:59;;;;;;;3.40;3.20;;;;;;;;;;4916972;29;20133;-80
2022/05/11 09:15:45;;;;;;;3.05;2.85;;;;;;;;;;4938881;29;20048;-80
2022/05/11 09:18:13;;;;;;;3.35;3.15;;;;;;;;;;4925966;29;20040;-80
2022/05/11 09:20:45;;;;;;;3.20;2.95;;;;;;;;;;4911366;29;20039;-80
2022/05/11 09:23:13;;;;;;;3.22;3.03;;;;;;;;;;4935486;29;20135;-81
2022/05/11 09:25:56;;;;;;;4.95;3.03;;;;;;;;;;4939069;29;20042;-81
2022/05/11 09:28:26;;;;;;;3.47;2.80;;;;;;;;;;4942815;28;20043;-80
2022/05/11 09:31:05;;;;;;;3.20;2.90;;;;;;;;;;4937663;28;20067;-80
2022/05/11 09:33:37;;;;;;;3.35;3.05;;;;;;;;;;4937024;29;20054;-81
2022/05/11 09:36:04;;;;;;;;;;;;;;;;;;4944447;29;20134;-80
2022/05/11 09:39:04;;;;;;;7.82;3.03;;;;;;;;;;4937637;29;19962;-80
2022/05/11 09:41:33;;;;;;;3.30;3.00;;;;;;;;;;4941234;29;20071;-81
2022/05/11 09:44:16;;;;;;;3.17;2.97;;;;;;;;;;4938139;29;20091;-81
2022/05/11 09:46:45;;;;;;;3.70;3.13;;;;;;;;;;4939376;29;20123;-79
2022/05/11 09:49:16;;;;;;;3.33;3.05;;;;;;;;;;4916376;29;20284;-79
2022/05/11 09:51:46;;;;;;;3.00;2.70;;;;;;;;;;4941287;29;20138;-79
2022/05/11 09:54:21;;;;;;;8.00;3.45;;;;;;;;;;4945291;28;20053;-80
2022/05/11 09:56:51;;;;;;;6.32;3.00;;;;;;;;;;4948003;28;20054;-80
2022/05/11 09:59:22;;;;;;;3.27;2.93;;;;;;;;;;4947080;29;20075;-80
2022/05/11 10:01:59;;;;;;;3.47;3.20;;;;;;;;;;4957189;28;20051;-79
2022/05/11 10:04:40;;;;;;;5.30;3.33;;;;;;;;;;4954706;29;20051;-79
2022/05/11 10:07:10;;;;;;;4.40;2.80;;;;;;;;;;4935338;29;20537;-80
2022/05/11 10:09:41;;;;;;;3.08;2.90;;;;;;;;;;4909113;29;20354;-79
2022/05/11 10:12:12;;;;;;;3.47;3.13;;;;;;;;;;4932460;29;20564;-80
2022/05/11 10:24:24;;;;;;;9.32;5.47;;;;;;;;;;4922526;29;20057;-80
2022/05/11 10:26:57;;;;;;;5.72;3.00;;;;;;;;;;4844880;29;20053;-79
2022/05/11 10:29:46;;;;;;;3.47;3.13;;;;;;;;;;4926449;29;20048;-78
2022/05/11 10:32:21;;;;;;;3.38;3.17;;;;;;;;;;4924057;29;20071;-78
2022/05/11 10:34:55;;;;;;;4.88;3.35;;;;;;;;;;4913988;29;20048;-79
2022/05/11 10:37:22;;;;;;;4.82;2.92;;;;;;;;;;4946009;28;20461;-79
2022/05/11 10:40:09;;;;;;;6.00;3.20;;;;;;;;;;4948391;28;20321;-80
2022/05/11 10:42:44;;;;;;;3.72;3.30;;;;;;;;;;4941487;29;20131;-79
2022/05/11 10:45:11;;;;;;;4.47;3.05;;;;;;;;;;4947307;29;20058;-79
2022/05/11 10:47:57;;;;;;;4.25;3.05;;;;;;;;;;4947635;29;20090;-79
2022/05/11 10:50:43;;;;;;;4.72;3.22;;;;;;;;;;4950914;28;20076;-80
2022/05/11 10:53:25;;;;;;;3.63;3.25;;;;;;;;;;4952625;29;20547;-80
2022/05/11 10:55:56;;;;;;;7.47;3.03;;;;;;;;;;4947918;28;20138;-81
2022/05/11 10:58:29;;;;;;;3.42;2.83;;;;;;;;;;4953703;28;20126;-81
2022/05/11 11:01:00;;;;;;;3.88;3.30;;;;;;;;;;4950127;29;20046;-79
2022/05/11 11:03:27;;;;;;;5.70;3.50;;;;;;;;;;4951075;29;20050;-81
2022/05/11 11:08:58;;;;;;;2.78;2.50;;;;;;;;;;4946649;28;20063;-81
2022/05/11 11:11:37;;;;;;;3.50;2.70;;;;;;;;;;4936634;28;20370;-80
2022/05/11 11:14:08;;;;;;;3.47;2.80;;;;;;;;;;4935540;29;20105;-80
2022/05/11 11:16:56;;;;;;;2.55;2.45;;;;;;;;;;4949733;29;20053;-80
2022/05/11 11:19:24;;;;;;;2.35;2.20;;;;;;;;;;4949139;28;20052;-80
2022/05/11 11:21:52;;;;;;;3.15;2.33;;;;;;;;;;4935974;29;20039;-80
2022/05/11 11:24:25;;;;;;;3.53;2.63;;;;;;;;;;4945425;28;20461;-81
2022/05/11 11:26:56;;;;;;;3.28;2.60;;;;;;;;;;4925949;29;20039;-80
2022/05/11 11:29:24;;;;;;;2.50;2.30;;;;;;;;;;4926708;29;20126;-80
2022/05/11 11:32:01;;;;;;;4.50;2.65;;;;;;;;;;4916215;29;20052;-80
2022/05/11 11:34:31;;;;;;;4.65;2.60;;;;;;;;;;4927873;29;20036;-81
2022/05/11 11:37:21;;;;;;;2.85;2.40;;;;;;;;;;4927653;29;20046;-81
2022/05/11 11:39:53;;;;;;;4.18;2.45;;;;;;;;;;4925207;29;20067;-80
2022/05/11 11:42:37;;;;;;;2.90;2.60;;;;;;;;;;4921307;29;20130;-80
2022/05/11 11:45:07;;;;;;;4.05;2.67;;;;;;;;;;4935973;29;20123;-82
2022/05/11 11:47:35;;;;;;;5.22;2.58;;;;;;;;;;4933698;29;20043;-82
2022/05/11 11:50:04;;;;;;;2.22;2.03;;;;;;;;;;4910646;29;20058;-80
2022/05/11 11:52:43;;;;;;;3.75;2.20;;;;;;;;;;4935359;29;20074;-80
2022/05/11 11:55:25;;;;;;;3.47;2.80;;;;;;;;;;4938317;29;20107;-80
2022/05/11 11:57:55;;;;;;;2.90;2.60;;;;;;;;;;4918233;29;20127;-81
2022/05/11 12:00:41;;;;;;;2.70;2.50;;;;;;;;;;4931936;29;20035;-81
2022/05/11 12:03:15;;;;;;;3.00;2.65;;;;;;;;;;4935288;29;20039;-80
2022/05/11 12:05:48;;;;;;;2.78;2.30;;;;;;;;;;4918988;29;20086;-80
2022/05/11 12:16:58;;;;;;;;;;;;;;;;;;4935351;28;20134;-81
2022/05/11 12:19:28;;;;;;;2.00;1.90;;;;;;;;;;4923479;29;19927;-80
2022/05/11 12:22:01;;;;;;;5.88;2.03;;;;;;;;;;4941728;28;20137;-79
2022/05/11 12:24:39;;;;;;;7.45;2.10;;;;;;;;;;4918278;29;20609;-83
2022/05/11 12:27:12;;;;;;;2.97;1.83;;;;;;;;;;4911228;29;20394;-80
2022/05/11 12:29:54;;;;;;;2.42;2.15;;;;;;;;;;4933516;29;20385;-81
2022/05/11 12:32:24;;;;;;;2.10;1.90;;;;;;;;;;4922242;29;20051;-80
2022/05/11 12:34:51;;;;;;;3.45;1.85;;;;;;;;;;4932353;29;20070;-81
2022/05/11 12:37:29;;;;;;;2.55;1.90;;;;;;;;;;4934329;29;20047;-79
2022/05/11 12:39:58;;;;;;;2.00;1.80;;;;;;;;;;4920873;29;20043;-79
2022/05/11 12:42:30;;;;;;;1.55;1.50;;;;;;;;;;4920897;29;20054;-81
2022/05/11 12:44:59;;;;;;;6.45;1.80;;;;;;;;;;4937292;29;20039;-80
2022/05/11 12:47:28;;;;;;;1.90;1.80;;;;;;;;;;4953966;28;20054;-80
2022/05/11 12:49:59;;;;;;;3.55;1.85;;;;;;;;;;4928360;29;20078;-80
2022/05/11 12:52:27;;;;;;;1.90;1.80;;;;;;;;;;4947673;28;20504;-81
2022/05/11 12:54:55;;;;;;;3.75;1.75;;;;;;;;;;4938983;29;20740;-81
2022/05/11 12:57:23;;;;;;;2.13;2.03;;;;;;;;;;4954024;29;20052;-80
2022/05/11 12:59:52;;;;;;;2.38;1.63;;;;;;;;;;4916882;29;20043;-77
2022/05/11 13:02:30;;;;;;;2.58;1.70;;;;;;;;;;4929704;29;20071;-77
2022/05/11 13:04:59;;;;;;;3.05;1.65;;;;;;;;;;4927761;29;20048;-77
2022/05/11 13:07:50;;;;;;;2.80;2.10;;;;;;;;;;4911562;29;20043;-76
2022/05/11 13:10:22;;;;;;;2.10;1.70;;;;;;;;;;4911029;29;20047;-77
2022/05/11 13:12:52;;;;;;;3.33;1.60;;;;;;;;;;4930735;29;20544;-78
2022/05/11 13:15:34;;;;;;;2.45;1.90;;;;;;;;;;4896162;29;20056;-78
2022/05/11 13:18:07;;;;;;;2.20;1.67;;;;;;;;;;4890183;29;20055;-77
2022/05/11 13:20:38;;;;;;;3.00;1.60;;;;;;;;;;4939770;23;20062;-82
2022/05/11 13:23:25;;;;;;;2.45;1.60;;;;;;;;;;4899349;29;20048;-82
2022/05/11 13:26:04;;;;;;;2.67;1.60;;;;;;;;;;4899043;29;20040;-82
2022/05/11 13:28:42;;;;;;;3.65;1.67;;;;;;;;;;4895722;29;20052;-81
2022/05/11 13:31:26;;;;;;;3.63;1.42;;;;;;;;;;4902034;29;20120;-83
2022/05/11 13:33:53;;;;;;;5.88;1.73;;;;;;;;;;4898736;29;20525;-82
2022/05/11 13:36:25;;;;;;;2.75;1.40;;;;;;;;;;4919565;29;20574;-83
2022/05/11 13:39:00;;;;;;;1.40;1.30;;;;;;;;;;4883458;29;20052;-82
2022/05/11 13:41:34;;;;;;;1.73;1.48;;;;;;;;;;4916133;29;20064;-83
2022/05/11 13:44:05;;;;;;;1.60;1.50;;;;;;;;;;4898093;29;20051;-82
2022/05/11 13:48:11;;;;;;;1.55;1.45;;;;;;;;;;4908580;29;20052;-82
2022/05/11 13:49:34;;;;;;;1.77;1.67;;;;;;;;;;4914592;29;20044;-84
2022/05/11 13:52:04;;;;;;;1.48;1.38;;;;;;;;;;4920810;29;20178;-82
2022/05/11 13:54:31;;;;;;;2.92;1.70;;;;;;;;;;4901546;29;20421;-83
2022/05/11 13:57:00;;;;;;;2.85;1.75;;;;;;;;;;4913338;29;20115;-82
2022/05/11 13:59:28;;;;;;;2.20;1.40;;;;;;;;;;4900382;29;20052;-83
2022/05/11 14:01:56;;;;;;;1.60;1.50;;;;;;;;;;4914778;29;20044;-81
2022/05/11 14:04:32;;;;;;;4.28;1.50;;;;;;;;;;4913514;29;20601;-83
2022/05/11 14:07:05;;;;;;;1.50;1.40;;;;;;;;;;4883919;29;20985;-83
2022/05/11 14:09:34;;;;;;;2.90;1.70;;;;;;;;;;4921005;29;20139;-82
2022/05/11 14:12:01;;;;;;;2.60;1.75;;;;;;;;;;4892137;29;20166;-82
2022/05/11 14:14:29;;;;;;;1.60;1.50;;;;;;;;;;4901317;29;20061;-83
2022/05/11 14:17:02;;;;;;;2.92;1.60;;;;;;;;;;4902561;29;20044;-86
2022/05/11 14:19:29;;;;;;;2.35;1.48;;;;;;;;;;4905734;29;20047;-82
2022/05/11 14:21:57;;;;;;;1.70;1.60;;;;;;;;;;4908294;29;20496;-83
2022/05/11 14:24:27;;;;;;;3.03;1.50;;;;;;;;;;4910312;29;20083;-83
2022/05/11 14:26:54;;;;;;;2.35;1.48;;;;;;;;;;4926291;29;20070;-82
2022/05/11 14:29:21;;;;;;;1.73;1.63;;;;;;;;;;4926919;29;20047;-83
2022/05/11 14:31:49;;;;;;;1.50;1.40;;;;;;;;;;4932016;29;20036;-84
2022/05/11 14:34:18;;;;;;;1.92;1.52;;;;;;;;;;4924985;29;20052;-82
2022/05/11 14:36:46;;;;;;;3.38;1.40;;;;;;;;;;4931167;29;20104;-84
2022/05/11 14:39:15;;;;;;;1.80;1.70;;;;;;;;;;4893936;29;20048;-83
2022/05/11 14:41:42;;;;;;;3.58;1.90;;;;;;;;;;4928505;29;20048;-83
2022/05/11 14:44:10;;;;;;;1.42;1.38;;;;;;;;;;4933178;29;20065;-84
2022/05/11 14:46:41;;;;;;;1.80;1.50;;;;;;;;;;4922066;29;20050;-83
2022/05/11 14:49:09;;;;;;;6.72;1.40;;;;;;;;;;4910178;29;20040;-84
2022/05/11 14:51:38;;;;;;;1.42;1.25;;;;;;;;;;4911019;29;20044;-85
2022/05/11 14:54:06;;;;;;;3.50;1.70;;;;;;;;;;4916136;29;20064;-83
2022/05/11 14:56:35;;;;;;;1.50;1.40;;;;;;;;;;4909804;29;20063;-83
2022/05/11 15:01:55;;;;;;;1.70;1.58;;;;;;;;;;4915120;29;20076;-85
2022/05/11 15:04:26;;;;;;;1.60;1.38;;;;;;;;;;4933316;29;20070;-82
2022/05/11 15:06:54;;;;;;;1.98;1.52;;;;;;;;;;4928878;29;20043;-84
2022/05/11 15:09:23;;;;;;;1.60;1.50;;;;;;;;;;4931230;29;20277;-82
2022/05/11 15:14:39;;;;;;;1.83;1.70;;;;;;;;;;4932417;29;20048;-82
2022/05/11 15:17:10;;;;;;;1.70;1.60;;;;;;;;;;4927528;29;20040;-83
2022/05/11 15:20:00;;;;;;;1.80;1.40;;;;;;;;;;4924466;29;20028;-81
2022/05/11 15:22:28;;;;;;;1.70;1.60;;;;;;;;;;4933935;29;20111;-83
2022/05/11 15:24:56;;;;;;;2.50;1.50;;;;;;;;;;4900925;29;20044;-84
2022/05/11 15:27:23;;;;;;;1.98;1.77;;;;;;;;;;4928740;29;20051;-84
2022/05/11 15:29:50;;;;;;;2.00;1.85;;;;;;;;;;4917441;29;20074;-84
2022/05/11 15:32:22;;;;;;;4.70;1.90;;;;;;;;;;4918226;29;20028;-82
2022/05/11 15:34:50;;;;;;;2.10;2.00;;;;;;;;;;4912132;29;20040;-85
2022/05/11 15:37:18;;;;;;;2.22;1.65;;;;;;;;;;4930622;29;20040;-83
2022/05/11 15:39:45;;;;;;;3.63;1.77;;;;;;;;;;4897231;29;20042;-83
2022/05/11 15:42:14;;;;;;;1.98;1.70;;;;;;;;;;4930636;29;20051;-80
2022/05/11 15:44:42;;;;;;;8.25;2.30;;;;;;;;;;4912730;29;20048;-82
2022/05/11 15:47:10;;;;;;;1.73;1.63;;;;;;;;;;4930507;29;20048;-84
2022/05/11 15:49:38;;;;;;;2.08;1.70;;;;;;;;;;4932493;29;20074;-86
2022/05/11 15:52:06;;;;;;;4.15;1.80;;;;;;;;;;4914837;29;20051;-84
2022/05/11 15:54:34;;;;;;;2.30;1.90;;;;;;;;;;4925658;29;20074;-83
2022/05/11 15:57:08;;;;;;;2.25;1.50;;;;;;;;;;4918096;29;20052;-86
2022/05/11 15:59:36;;;;;;;2.17;1.80;;;;;;;;;;4914425;29;20047;-84